createdAt,value
2022-11-23T00:00:36.409Z,6.43
2022-11-23T00:03:03.127Z,6.50
2022-11-23T00:05:31.320Z,6.40
2022-11-23T00:07:58.163Z,6.27
2022-11-23T00:10:24.894Z,7.17
2022-11-23T00:12:51.734Z,6.57
2022-11-23T00:15:18.586Z,6.57
2022-11-23T00:17:48.389Z,5.77
2022-11-23T00:20:15.322Z,6.60
2022-11-23T00:22:42.044Z,6.60
2022-11-23T00:25:09.200Z,6.57
2022-11-23T00:27:35.934Z,6.37
2022-11-23T00:30:02.812Z,5.57
2022-11-23T00:32:30.167Z,5.40
2022-11-23T00:34:57.002Z,5.40
2022-11-23T00:37:23.708Z,5.17
2022-11-23T00:39:51.636Z,5.13
2022-11-23T00:42:18.624Z,5.27
2022-11-23T00:44:48.548Z,5.13
2022-11-23T00:47:15.213Z,4.77
2022-11-23T00:49:41.879Z,4.77
2022-11-23T00:52:08.652Z,4.47
2022-11-23T00:54:35.377Z,4.83
2022-11-23T00:57:02.173Z,4.37
2022-11-23T00:59:29.862Z,3.87
2022-11-23T01:01:59.227Z,3.53
2022-11-23T01:04:26.100Z,3.53
2022-11-23T01:06:57.400Z,3.60
2022-11-23T01:09:26.805Z,3.50
2022-11-23T01:11:54.447Z,3.47
2022-11-23T01:14:22.411Z,3.73
2022-11-23T01:16:49.625Z,3.90
2022-11-23T01:19:20.831Z,3.17
2022-11-23T01:21:47.760Z,3.50
2022-11-23T01:24:20.766Z,3.40
2022-11-23T01:26:52.572Z,3.57
2022-11-23T01:29:19.498Z,3.20
2022-11-23T01:31:47.103Z,3.73
2022-11-23T01:34:14.793Z,3.23
2022-11-23T01:36:41.748Z,3.43
2022-11-23T01:39:10.115Z,4.10
2022-11-23T01:41:40.081Z,3.40
2022-11-23T01:44:31.606Z,3.33
2022-11-23T01:47:09.704Z,3.07
2022-11-23T01:49:40.892Z,3.23
2022-11-23T01:52:13.262Z,3.37
2022-11-23T01:54:52.567Z,3.47
2022-11-23T01:57:23.953Z,3.93
2022-11-23T01:59:51.977Z,3.60
2022-11-23T02:02:19.076Z,3.33
2022-11-23T02:04:48.832Z,4.10
2022-11-23T02:07:18.327Z,4.23
2022-11-23T02:09:49.273Z,3.83
2022-11-23T02:12:16.647Z,3.93
2022-11-23T02:14:44.086Z,4.03
2022-11-23T02:17:11.031Z,3.10
2022-11-23T02:19:41.648Z,3.60
2022-11-23T02:22:16.066Z,3.50
2022-11-23T02:24:49.875Z,3.40
2022-11-23T02:27:17.375Z,3.17
2022-11-23T02:29:46.777Z,3.30
2022-11-23T02:32:20.048Z,3.33
2022-11-23T02:34:47.916Z,3.20
2022-11-23T02:37:14.674Z,2.33
2022-11-23T02:39:47.579Z,2.67
2022-11-23T02:42:14.554Z,2.80
2022-11-23T02:44:47.578Z,2.87
2022-11-23T02:47:15.946Z,2.70
2022-11-23T02:49:45.717Z,2.70
2022-11-23T02:52:12.648Z,2.37
2022-11-23T02:54:39.347Z,2.07
2022-11-23T02:57:06.569Z,2.73
2022-11-23T02:59:34.343Z,2.57
2022-11-23T03:02:03.358Z,2.27
2022-11-23T03:04:30.484Z,2.77
2022-11-23T03:06:58.146Z,2.33
2022-11-23T03:09:26.434Z,2.33
2022-11-23T03:11:54.390Z,2.80
2022-11-23T03:14:22.007Z,2.13
2022-11-23T03:16:48.962Z,2.77
2022-11-23T03:19:15.758Z,2.40
2022-11-23T03:21:42.483Z,2.93
2022-11-23T03:24:09.214Z,2.50
2022-11-23T03:26:36.034Z,2.73
2022-11-23T03:29:02.910Z,2.67
2022-11-23T03:31:29.658Z,2.77
2022-11-23T03:33:56.330Z,2.53
2022-11-23T03:36:23.279Z,2.40
2022-11-23T03:38:50.053Z,2.50
2022-11-23T03:41:16.806Z,2.63
2022-11-23T03:43:43.643Z,2.27
2022-11-23T03:46:10.371Z,2.60
2022-11-23T03:48:37.034Z,2.57
2022-11-23T03:51:04.030Z,2.30
2022-11-23T03:53:33.502Z,2.77
2022-11-23T03:56:00.411Z,2.63
2022-11-23T03:58:27.357Z,1.80
2022-11-23T04:00:54.903Z,2.20
2022-11-23T04:03:23.986Z,2.30
2022-11-23T04:05:50.766Z,2.47
2022-11-23T04:08:17.559Z,3.07
2022-11-23T04:10:44.277Z,2.27
2022-11-23T04:13:11.155Z,2.03
2022-11-23T04:15:37.983Z,2.40
2022-11-23T04:18:04.822Z,2.50
2022-11-23T04:20:31.662Z,2.10
2022-11-23T04:22:58.413Z,2.13
2022-11-23T04:25:25.113Z,2.20
2022-11-23T04:27:54.220Z,1.77
2022-11-23T04:30:21.587Z,2.33
2022-11-23T04:32:48.481Z,2.37
2022-11-23T04:35:15.523Z,2.40
2022-11-23T04:37:42.248Z,2.00
2022-11-23T04:40:09.853Z,2.20
2022-11-23T04:42:39.748Z,1.90
2022-11-23T04:45:09.343Z,2.20
2022-11-23T04:47:36.083Z,1.77
2022-11-23T04:50:02.918Z,1.87
2022-11-23T04:52:29.613Z,2.00
2022-11-23T04:54:56.569Z,1.33
2022-11-23T04:57:23.476Z,2.40
2022-11-23T04:59:50.171Z,1.90
2022-11-23T05:02:16.930Z,2.50
2022-11-23T05:04:55.953Z,1.90
2022-11-23T05:07:22.645Z,1.93
2022-11-23T05:09:49.695Z,2.10
2022-11-23T05:12:16.558Z,1.77
2022-11-23T05:14:43.395Z,1.93
2022-11-23T05:17:10.153Z,2.00
2022-11-23T05:19:36.938Z,2.43
2022-11-23T05:22:03.621Z,1.90
2022-11-23T05:24:30.333Z,2.07
2022-11-23T05:26:57.138Z,2.27
2022-11-23T05:29:24.462Z,2.10
2022-11-23T05:31:51.155Z,2.37
2022-11-23T05:34:17.998Z,1.80
2022-11-23T05:36:44.760Z,1.50
2022-11-23T05:39:11.557Z,2.07
2022-11-23T05:41:38.387Z,1.63
2022-11-23T05:44:05.352Z,2.30
2022-11-23T05:46:32.238Z,2.47
2022-11-23T05:48:58.910Z,2.13
2022-11-23T05:51:25.788Z,1.50
2022-11-23T05:53:52.516Z,3.20
2022-11-23T05:56:19.462Z,1.83
2022-11-23T05:58:46.272Z,2.20
2022-11-23T06:01:15.287Z,1.87
2022-11-23T06:03:42.211Z,2.20
2022-11-23T06:06:09.118Z,1.90
2022-11-23T06:08:36.202Z,2.20
2022-11-23T06:11:03.213Z,1.90
2022-11-23T06:13:29.946Z,2.10
2022-11-23T06:15:57.398Z,2.37
2022-11-23T06:18:24.271Z,1.80
2022-11-23T06:20:51.083Z,2.60
2022-11-23T06:23:17.921Z,2.63
2022-11-23T06:25:44.674Z,1.73
2022-11-23T06:28:11.430Z,2.57
2022-11-23T06:30:38.186Z,2.27
2022-11-23T06:33:05.436Z,2.23
2022-11-23T06:35:32.133Z,1.57
2022-11-23T06:37:58.892Z,2.00
2022-11-23T06:40:25.791Z,2.70
2022-11-23T06:42:57.548Z,2.50
2022-11-23T06:45:24.490Z,1.90
2022-11-23T06:47:55.617Z,2.00
2022-11-23T06:50:25.415Z,2.47
2022-11-23T06:52:56.654Z,2.00
2022-11-23T06:55:27.012Z,2.20
2022-11-23T06:57:53.719Z,2.27
2022-11-23T07:00:20.824Z,2.70
2022-11-23T07:02:54.543Z,1.80
2022-11-23T07:05:24.782Z,2.10
2022-11-23T07:07:51.552Z,2.20
2022-11-23T07:10:28.301Z,2.17
2022-11-23T07:12:55.161Z,2.10
2022-11-23T07:15:21.930Z,2.33
2022-11-23T07:17:51.854Z,1.87
2022-11-23T07:20:18.665Z,1.80
2022-11-23T07:22:45.475Z,2.47
2022-11-23T07:25:16.557Z,2.60
2022-11-23T07:27:43.404Z,2.50
2022-11-23T07:30:10.696Z,2.70
2022-11-23T07:32:37.450Z,2.00
2022-11-23T07:35:04.520Z,2.10
2022-11-23T07:37:31.305Z,3.00
2022-11-23T07:39:58.628Z,2.57
2022-11-23T07:42:36.800Z,2.10
2022-11-23T07:45:11.654Z,2.70
2022-11-23T07:47:39.031Z,2.27
2022-11-23T07:50:07.893Z,2.00
2022-11-23T07:52:36.795Z,2.67
2022-11-23T07:55:04.372Z,2.87
2022-11-23T07:57:31.316Z,2.20
2022-11-23T07:59:58.084Z,1.80
2022-11-23T08:02:24.901Z,2.30
2022-11-23T08:04:51.709Z,1.60
2022-11-23T08:07:18.535Z,2.33
2022-11-23T08:09:45.239Z,2.37
2022-11-23T08:12:12.119Z,2.20
2022-11-23T08:14:38.837Z,2.20
2022-11-23T08:17:05.739Z,1.80
2022-11-23T08:19:32.401Z,2.20
2022-11-23T08:21:59.071Z,1.70
2022-11-23T08:24:25.868Z,2.13
2022-11-23T08:26:52.679Z,1.73
2022-11-23T08:29:19.524Z,2.20
2022-11-23T08:31:46.412Z,2.53
2022-11-23T08:34:16.766Z,1.87
2022-11-23T08:36:43.883Z,2.70
2022-11-23T08:39:11.272Z,2.00
2022-11-23T08:41:38.527Z,2.20
2022-11-23T08:44:05.597Z,1.73
2022-11-23T08:46:32.482Z,1.80
2022-11-23T08:48:59.216Z,1.70
2022-11-23T08:51:26.002Z,1.77
2022-11-23T08:53:54.694Z,1.67
2022-11-23T08:56:21.424Z,1.73
2022-11-23T08:58:51.305Z,2.03
2022-11-23T09:01:18.599Z,1.93
2022-11-23T09:03:45.430Z,1.40
2022-11-23T09:06:12.416Z,2.07
2022-11-23T09:08:42.136Z,1.93
2022-11-23T09:11:12.511Z,1.60
2022-11-23T09:13:39.713Z,1.60
2022-11-23T09:16:07.311Z,1.63
2022-11-23T09:18:35.821Z,1.80
2022-11-23T09:21:06.613Z,2.23
2022-11-23T09:23:33.594Z,2.53
2022-11-23T09:26:02.290Z,2.20
2022-11-23T09:28:29.593Z,2.10
2022-11-23T09:30:57.198Z,2.10
2022-11-23T09:33:25.273Z,2.03
2022-11-23T09:35:58.778Z,1.97
2022-11-23T09:38:51.428Z,1.73
2022-11-23T09:41:15.652Z,1.67
2022-11-23T09:43:50.077Z,2.00
2022-11-23T09:46:44.225Z,1.77
2022-11-23T09:49:21.102Z,2.00
2022-11-23T09:51:50.536Z,1.87
2022-11-23T09:54:39.009Z,1.77
2022-11-23T09:57:06.207Z,1.97
2022-11-23T10:00:07.176Z,1.80
2022-11-23T10:02:40.398Z,1.63
2022-11-23T10:05:08.014Z,2.37
2022-11-23T10:08:04.858Z,2.20
2022-11-23T10:10:48.498Z,1.50
2022-11-23T10:13:51.215Z,2.17
2022-11-23T10:16:37.481Z,1.80
2022-11-23T10:19:19.184Z,1.40
2022-11-23T10:21:59.741Z,1.63
2022-11-23T10:24:35.356Z,1.80
2022-11-23T10:27:03.923Z,1.77
2022-11-23T10:29:35.109Z,1.67
2022-11-23T10:32:04.821Z,1.40
2022-11-23T10:34:52.347Z,1.40
2022-11-23T10:37:21.791Z,1.57
2022-11-23T10:39:48.635Z,1.57
2022-11-23T10:42:38.175Z,1.40
2022-11-23T10:45:08.497Z,1.37
2022-11-23T10:47:40.992Z,1.53
2022-11-23T10:50:30.285Z,1.40
2022-11-23T10:53:22.681Z,1.40
2022-11-23T10:55:57.965Z,1.53
2022-11-23T10:58:31.332Z,1.77
2022-11-23T11:01:02.475Z,1.53
2022-11-23T11:03:33.546Z,1.33
2022-11-23T11:06:10.509Z,1.70
2022-11-23T11:08:53.759Z,1.13
2022-11-23T11:11:35.092Z,1.43
2022-11-23T11:14:24.831Z,1.47
2022-11-23T11:16:54.289Z,1.70
2022-11-23T11:19:29.641Z,1.37
2022-11-23T11:21:58.089Z,1.67
2022-11-23T11:24:45.215Z,1.33
2022-11-23T11:27:22.257Z,1.37
2022-11-23T11:29:51.795Z,1.43
2022-11-23T11:32:45.086Z,1.00
2022-11-23T11:35:20.431Z,0.80
2022-11-23T11:38:29.764Z,1.20
2022-11-23T11:41:00.220Z,1.63
2022-11-23T11:43:39.453Z,1.37
2022-11-23T11:49:07.488Z,1.23
2022-11-23T11:51:40.184Z,1.10
2022-11-23T11:54:18.009Z,1.20
2022-11-23T11:56:46.505Z,2.03
2022-11-23T11:59:30.844Z,1.40
2022-11-23T12:02:27.770Z,1.73
2022-11-23T12:05:08.097Z,1.37
2022-11-23T12:07:51.609Z,1.30
2022-11-23T12:10:25.849Z,1.30
2022-11-23T12:12:53.030Z,0.90
2022-11-23T12:15:49.507Z,1.50
2022-11-23T12:18:46.200Z,0.70
2022-11-23T12:21:40.291Z,1.13
2022-11-23T12:24:47.907Z,1.23
2022-11-23T12:27:38.647Z,1.43
2022-11-23T12:31:03.425Z,1.07
2022-11-23T12:33:36.651Z,1.27
2022-11-23T12:36:50.401Z,1.27
2022-11-23T12:39:35.506Z,0.90
2022-11-23T12:42:09.812Z,0.73
2022-11-23T12:44:57.328Z,0.73
2022-11-23T12:47:48.621Z,0.90
2022-11-23T12:50:38.809Z,0.90
2022-11-23T12:53:29.565Z,1.67
2022-11-23T12:56:24.922Z,1.00
2022-11-23T12:58:54.342Z,1.03
2022-11-23T13:01:32.161Z,0.53
2022-11-23T13:04:33.248Z,1.10
2022-11-23T13:10:16.635Z,0.70
2022-11-23T13:13:14.083Z,0.80
2022-11-23T13:15:48.781Z,1.10
2022-11-23T13:18:53.756Z,0.63
2022-11-23T13:21:47.849Z,0.73
2022-11-23T13:25:13.598Z,0.60
2022-11-23T13:27:49.499Z,0.90
2022-11-23T13:30:22.171Z,0.73
2022-11-23T13:33:01.753Z,0.80
2022-11-23T13:35:31.447Z,0.80
2022-11-23T13:37:58.313Z,0.63
2022-11-23T13:40:36.518Z,1.00
2022-11-23T13:43:21.381Z,0.90
2022-11-23T13:46:11.064Z,0.80
2022-11-23T13:48:57.301Z,1.10
2022-11-23T13:51:37.390Z,1.10
2022-11-23T13:54:18.717Z,1.07
2022-11-23T13:56:46.184Z,0.73
2022-11-23T13:59:24.927Z,1.50
2022-11-23T14:02:06.806Z,1.37
2022-11-23T14:04:40.896Z,0.93
2022-11-23T14:07:10.966Z,0.90
2022-11-23T14:10:09.887Z,1.10
2022-11-23T14:12:47.416Z,0.73
2022-11-23T14:15:20.739Z,1.00
2022-11-23T14:17:59.107Z,0.80
2022-11-23T14:20:39.660Z,0.90
2022-11-23T14:23:48.658Z,0.90
2022-11-23T14:26:49.395Z,1.37
2022-11-23T14:29:35.139Z,0.93
2022-11-23T14:32:07.505Z,1.20
2022-11-23T14:34:55.562Z,1.20
2022-11-23T14:37:59.546Z,1.00
2022-11-23T14:40:37.570Z,1.03
2022-11-23T14:43:05.200Z,1.33
2022-11-23T14:45:34.769Z,1.07
2022-11-23T14:48:27.194Z,1.00
2022-11-23T14:51:00.406Z,1.00
2022-11-23T14:53:34.849Z,1.17
2022-11-23T14:56:01.991Z,1.20
2022-11-23T14:58:32.205Z,0.83
2022-11-23T15:01:03.335Z,1.40
2022-11-23T15:03:50.008Z,1.17
2022-11-23T15:06:18.558Z,1.10
2022-11-23T15:09:06.198Z,1.23
2022-11-23T15:11:40.968Z,1.00
2022-11-23T15:14:25.382Z,0.90
2022-11-23T15:16:52.228Z,1.27
2022-11-23T15:19:29.553Z,1.20
2022-11-23T15:21:57.240Z,1.30
2022-11-23T15:24:26.057Z,1.00
2022-11-23T15:26:53.763Z,0.93
2022-11-23T15:29:38.354Z,1.37
2022-11-23T15:32:30.584Z,1.47
2022-11-23T15:35:06.892Z,1.30
2022-11-23T15:37:42.795Z,1.43
2022-11-23T15:40:16.405Z,1.00
2022-11-23T15:42:44.979Z,1.20
2022-11-23T15:45:47.890Z,1.40
2022-11-23T15:48:23.063Z,1.50
2022-11-23T15:51:04.700Z,1.57
2022-11-23T15:53:50.540Z,1.40
2022-11-23T15:56:25.650Z,1.30
2022-11-23T15:58:54.348Z,1.40
2022-11-23T16:01:22.168Z,1.53
2022-11-23T16:03:55.820Z,1.50
2022-11-23T16:06:33.340Z,1.77
2022-11-23T16:09:00.083Z,1.50
2022-11-23T16:11:36.176Z,1.40
2022-11-23T16:14:16.804Z,1.30
2022-11-23T16:16:46.297Z,1.90
2022-11-23T16:19:46.491Z,1.47
2022-11-23T16:22:38.603Z,1.80
2022-11-23T16:25:16.308Z,1.40
2022-11-23T16:27:43.023Z,1.70
2022-11-23T16:30:30.952Z,1.70
2022-11-23T16:32:58.702Z,2.10
2022-11-23T16:35:25.371Z,1.90
2022-11-23T16:37:52.184Z,2.03
2022-11-23T16:40:18.900Z,1.80
2022-11-23T16:42:47.353Z,1.80
2022-11-23T16:45:14.346Z,1.83
2022-11-23T16:48:02.025Z,1.80
2022-11-23T16:50:33.128Z,1.90
2022-11-23T16:53:14.457Z,2.20
2022-11-23T16:55:43.812Z,2.40
2022-11-23T16:58:14.653Z,2.20
2022-11-23T17:00:42.104Z,2.10
2022-11-23T17:03:19.546Z,2.33
2022-11-23T17:05:46.870Z,2.27
2022-11-23T17:08:18.082Z,2.43
2022-11-23T17:10:50.068Z,2.10
2022-11-23T17:13:26.720Z,2.30
2022-11-23T17:15:54.150Z,2.00
2022-11-23T17:18:24.068Z,2.37
2022-11-23T17:20:50.789Z,2.67
2022-11-23T17:23:18.254Z,2.50
2022-11-23T17:25:45.032Z,2.37
2022-11-23T17:28:15.993Z,2.50
2022-11-23T17:30:43.203Z,2.40
2022-11-23T17:33:11.926Z,2.70
2022-11-23T17:35:39.903Z,2.60
2022-11-23T17:38:12.178Z,2.60
2022-11-23T17:40:39.028Z,2.70
2022-11-23T17:43:05.738Z,2.67
2022-11-23T17:45:33.062Z,3.27
2022-11-23T17:48:03.392Z,2.97
2022-11-23T17:50:30.631Z,3.27
2022-11-23T17:52:57.513Z,3.10
2022-11-23T17:55:24.432Z,2.87
2022-11-23T17:57:54.391Z,3.20
2022-11-23T18:00:23.076Z,3.13
2022-11-23T18:02:50.070Z,3.47
2022-11-23T18:05:21.415Z,3.20
2022-11-23T18:07:50.143Z,3.17
2022-11-23T18:10:17.404Z,3.10
2022-11-23T18:12:46.974Z,3.17
2022-11-23T18:15:14.561Z,3.20
2022-11-23T18:17:41.518Z,2.97
2022-11-23T18:20:10.276Z,2.73
2022-11-23T18:22:37.583Z,2.83
2022-11-23T18:25:04.577Z,3.00
2022-11-23T18:27:31.354Z,2.90
2022-11-23T18:29:58.098Z,3.00
2022-11-23T18:32:24.963Z,3.07
2022-11-23T18:34:51.880Z,3.00
2022-11-23T18:37:21.726Z,2.80
2022-11-23T18:39:48.643Z,3.10
2022-11-23T18:42:15.461Z,2.83
2022-11-23T18:44:42.606Z,3.03
2022-11-23T18:47:09.480Z,3.30
2022-11-23T18:49:36.431Z,2.73
2022-11-23T18:52:03.524Z,3.10
2022-11-23T18:54:30.242Z,3.37
2022-11-23T18:57:02.037Z,3.17
2022-11-23T18:59:56.409Z,3.50
2022-11-23T19:02:15.663Z,3.03
2022-11-23T19:04:42.468Z,3.57
2022-11-23T19:07:09.632Z,3.20
2022-11-23T19:09:36.416Z,3.50
2022-11-23T19:12:03.528Z,3.63
2022-11-23T19:14:30.264Z,3.60
2022-11-23T19:16:56.970Z,3.77
2022-11-23T19:19:23.790Z,3.37
2022-11-23T19:21:50.457Z,3.60
2022-11-23T19:24:17.307Z,3.70
2022-11-23T19:26:44.111Z,3.40
2022-11-23T19:29:11.045Z,3.60
2022-11-23T19:31:40.938Z,3.50
2022-11-23T19:34:10.507Z,3.80
2022-11-23T19:36:37.402Z,3.70
2022-11-23T19:39:05.470Z,3.67
2022-11-23T19:41:32.750Z,3.87
2022-11-23T19:44:01.022Z,3.60
2022-11-23T19:46:29.920Z,3.67
2022-11-23T19:48:57.827Z,3.53
2022-11-23T19:51:25.510Z,4.07
2022-11-23T19:53:52.350Z,3.47
2022-11-23T19:56:26.593Z,3.60
2022-11-23T19:58:59.246Z,4.20
2022-11-23T20:01:31.283Z,3.37
2022-11-23T20:04:07.984Z,3.57
2022-11-23T20:06:37.263Z,4.13
2022-11-23T20:09:09.572Z,4.00
2022-11-23T20:11:39.418Z,3.93
2022-11-23T20:14:06.845Z,4.13
2022-11-23T20:16:34.218Z,3.60
2022-11-23T20:19:03.498Z,4.47
2022-11-23T20:21:31.737Z,4.77
2022-11-23T20:24:04.759Z,3.93
2022-11-23T20:26:32.497Z,4.10
2022-11-23T20:29:01.938Z,3.93
2022-11-23T20:31:30.622Z,3.73
2022-11-23T20:33:57.999Z,4.90
2022-11-23T20:36:30.010Z,3.73
2022-11-23T20:38:57.519Z,4.07
2022-11-23T20:41:29.719Z,3.77
2022-11-23T20:43:57.686Z,3.97
2022-11-23T20:46:53.667Z,3.93
2022-11-23T20:49:13.109Z,4.40
2022-11-23T20:51:39.895Z,4.07
2022-11-23T20:54:07.000Z,3.73
2022-11-23T20:56:33.754Z,4.03
2022-11-23T20:59:00.597Z,5.27
2022-11-23T21:01:28.676Z,4.07
2022-11-23T21:03:58.542Z,3.87
2022-11-23T21:06:28.221Z,3.40
2022-11-23T21:08:55.317Z,4.07
2022-11-23T21:11:43.700Z,4.07
2022-11-23T21:14:21.632Z,3.97
2022-11-23T21:16:55.621Z,3.83
2022-11-23T21:19:24.382Z,4.20
2022-11-23T21:21:51.423Z,4.53
2022-11-23T21:24:18.532Z,4.77
2022-11-23T21:26:46.122Z,4.60
2022-11-23T21:29:13.240Z,3.77
2022-11-23T21:31:42.357Z,3.73
2022-11-23T21:34:17.610Z,3.93
2022-11-23T21:36:47.152Z,3.73
2022-11-23T21:39:14.927Z,3.63
2022-11-23T21:41:42.182Z,3.83
2022-11-23T21:44:10.365Z,3.93
2022-11-23T21:46:39.005Z,4.07
2022-11-23T21:49:14.107Z,4.03
2022-11-23T21:51:42.679Z,4.27
2022-11-23T21:54:14.011Z,3.47
2022-11-23T21:56:41.892Z,3.80
2022-11-23T21:59:09.350Z,3.87
2022-11-23T22:01:37.187Z,3.93
2022-11-23T22:04:08.879Z,4.10
2022-11-23T22:06:39.814Z,3.80
2022-11-23T22:09:09.587Z,3.90
2022-11-23T22:11:38.335Z,3.80
2022-11-23T22:14:08.119Z,4.07
2022-11-23T22:16:37.314Z,3.40
2022-11-23T22:19:05.419Z,3.40
2022-11-23T22:21:35.176Z,4.50
2022-11-23T22:24:03.150Z,3.70
2022-11-23T22:26:30.182Z,3.97
2022-11-23T22:28:57.962Z,3.47
2022-11-23T22:31:25.879Z,3.80
2022-11-23T22:33:53.504Z,4.57
2022-11-23T22:36:22.691Z,3.87
2022-11-23T22:38:59.679Z,4.40
2022-11-23T22:41:29.374Z,3.70
2022-11-23T22:43:56.590Z,3.73
2022-11-23T22:46:24.735Z,3.40
2022-11-23T22:48:52.658Z,4.13
2022-11-23T22:51:22.717Z,4.00
2022-11-23T22:53:54.350Z,4.20
2022-11-23T22:56:26.005Z,3.63
2022-11-23T22:58:53.023Z,3.50
2022-11-23T23:01:24.937Z,3.53
2022-11-23T23:03:56.184Z,2.83
2022-11-23T23:06:25.357Z,3.23
2022-11-23T23:08:57.317Z,3.33
2022-11-23T23:11:25.779Z,3.20
2022-11-23T23:13:52.962Z,4.03
2022-11-23T23:16:20.252Z,3.60
2022-11-23T23:18:47.385Z,4.00
2022-11-23T23:21:19.921Z,3.30
2022-11-23T23:23:49.457Z,3.83
2022-11-23T23:26:17.976Z,3.10
2022-11-23T23:28:44.805Z,2.87
2022-11-23T23:31:17.290Z,3.20
2022-11-23T23:33:45.724Z,3.33
2022-11-23T23:36:14.860Z,3.07
2022-11-23T23:38:41.934Z,3.20
2022-11-23T23:41:12.631Z,3.00
2022-11-23T23:43:42.683Z,3.23
2022-11-23T23:46:12.147Z,3.53
2022-11-23T23:48:40.244Z,3.10
2022-11-23T23:51:09.281Z,3.67
2022-11-23T23:53:37.135Z,2.97
2022-11-23T23:56:07.751Z,3.37
2022-11-23T23:58:35.221Z,3.30
